6TS8 weather

Rabb And Nobra Airport
Industry, Texas, United States

Public forecast

Using degrees Fahrenheit for public forecast. Weather courtesy of forecast.io.

Closest aviation weather report (METAR) to Rabb And Nobra Airport

Closest report is Brenham Municipal Airport, 16.8 nm (31.2 km) NE. Retrieved 2020/08/06 06:35 UTC (4 minutes ago):

K11R 060635Z AUTO 18004KT 10SM CLR 26/23 A2998 RMK AO2 T02620225

Closest aviation forecast (TAF) to Rabb And Nobra Airport

Closest forecast is Easterwood Field, 36.9 nm (68.3 km) NNE. Retrieved 2020/08/06 06:22 UTC (17 minutes ago):

TAF KCLL 060520Z 0606/0706 18008KT P6SM SKC FM061200 17004KT P6SM FEW150 FM061500 19008KT P6SM FEW035 FM070000 16009KT P6SM SKC